sensor_id;sensor_type;location;lat;lon;timestamp;pressure;altitude;pressure_sealevel;temperature;humidity
71795;BME280;59641;45.188;5.712;2023-04-15T00:02:16;98512.25;;;13.69;60.29
71795;BME280;59641;45.188;5.712;2023-04-15T00:04:44;98516.53;;;13.64;60.38
71795;BME280;59641;45.188;5.712;2023-04-15T00:07:09;98512.75;;;13.66;60.12
71795;BME280;59641;45.188;5.712;2023-04-15T00:09:35;98513.28;;;13.62;60.52
71795;BME280;59641;45.188;5.712;2023-04-15T00:12:00;98526.19;;;13.60;60.42
71795;BME280;59641;45.188;5.712;2023-04-15T00:14:26;98524.56;;;13.59;60.43
71795;BME280;59641;45.188;5.712;2023-04-15T00:16:52;98522.13;;;13.58;60.09
71795;BME280;59641;45.188;5.712;2023-04-15T00:19:20;98524.56;;;13.54;59.96
71795;BME280;59641;45.188;5.712;2023-04-15T00:21:45;98521.53;;;13.51;60.74
71795;BME280;59641;45.188;5.712;2023-04-15T00:24:11;98512.66;;;13.50;61.08
71795;BME280;59641;45.188;5.712;2023-04-15T00:26:37;98515.09;;;13.52;61.04
71795;BME280;59641;45.188;5.712;2023-04-15T00:29:03;98518.31;;;13.54;60.83
71795;BME280;59641;45.188;5.712;2023-04-15T00:31:29;98520.22;;;13.53;60.61
71795;BME280;59641;45.188;5.712;2023-04-15T00:33:55;98512.41;;;13.52;61.12
71795;BME280;59641;45.188;5.712;2023-04-15T00:36:21;98515.91;;;13.52;60.99
71795;BME280;59641;45.188;5.712;2023-04-15T00:38:46;98522.91;;;13.53;60.91
71795;BME280;59641;45.188;5.712;2023-04-15T00:41:12;98528.31;;;13.53;60.99
71795;BME280;59641;45.188;5.712;2023-04-15T00:43:37;98532.06;;;13.52;61.25
71795;BME280;59641;45.188;5.712;2023-04-15T00:46:04;98526.41;;;13.54;61.05
71795;BME280;59641;45.188;5.712;2023-04-15T00:48:30;98527.25;;;13.54;60.83
71795;BME280;59641;45.188;5.712;2023-04-15T00:50:56;98519.41;;;13.53;60.75
71795;BME280;59641;45.188;5.712;2023-04-15T00:53:21;98529.63;;;13.51;60.74
71795;BME280;59641;45.188;5.712;2023-04-15T00:55:47;98525.56;;;13.48;61.03
71795;BME280;59641;45.188;5.712;2023-04-15T00:58:13;98517.75;;;13.47;60.99
71795;BME280;59641;45.188;5.712;2023-04-15T01:00:39;98517.75;;;13.47;61.13
71795;BME280;59641;45.188;5.712;2023-04-15T01:03:05;98522.06;;;13.48;61.45
71795;BME280;59641;45.188;5.712;2023-04-15T01:05:31;98529.06;;;13.49;60.93
71795;BME280;59641;45.188;5.712;2023-04-15T01:07:56;98521.00;;;13.49;61.32
71795;BME280;59641;45.188;5.712;2023-04-15T01:10:22;98516.69;;;13.48;61.33
71795;BME280;59641;45.188;5.712;2023-04-15T01:12:47;98519.94;;;13.50;61.55
71795;BME280;59641;45.188;5.712;2023-04-15T01:15:13;98511.84;;;13.50;61.61
71795;BME280;59641;45.188;5.712;2023-04-15T01:17:40;98512.66;;;13.50;61.72
71795;BME280;59641;45.188;5.712;2023-04-15T01:20:06;98516.16;;;13.51;61.76
71795;BME280;59641;45.188;5.712;2023-04-15T01:22:34;98517.78;;;13.52;61.03
71795;BME280;59641;45.188;5.712;2023-04-15T01:25:09;98514.53;;;13.50;61.01
71795;BME280;59641;45.188;5.712;2023-04-15T01:27:38;98513.72;;;13.49;61.44
71795;BME280;59641;45.188;5.712;2023-04-15T01:30:05;98517.50;;;13.48;60.99
71795;BME280;59641;45.188;5.712;2023-04-15T01:32:32;98527.16;;;13.44;61.21
71795;BME280;59641;45.188;5.712;2023-04-15T01:34:58;98526.34;;;13.43;61.46
71795;BME280;59641;45.188;5.712;2023-04-15T01:37:23;98526.09;;;13.45;61.86
71795;BME280;59641;45.188;5.712;2023-04-15T01:39:49;98525.81;;;13.47;61.96
71795;BME280;59641;45.188;5.712;2023-04-15T01:42:14;98524.78;;;13.48;61.95
71795;BME280;59641;45.188;5.712;2023-04-15T01:44:40;98530.72;;;13.50;62.04
71795;BME280;59641;45.188;5.712;2023-04-15T01:47:05;98519.66;;;13.51;61.90
71795;BME280;59641;45.188;5.712;2023-04-15T01:49:31;98520.50;;;13.52;62.08
71795;BME280;59641;45.188;5.712;2023-04-15T01:51:57;98532.06;;;13.52;62.14
71795;BME280;59641;45.188;5.712;2023-04-15T01:54:22;98527.50;;;13.53;61.89
71795;BME280;59641;45.188;5.712;2023-04-15T01:56:47;98529.38;;;13.52;62.08
71795;BME280;59641;45.188;5.712;2023-04-15T01:59:13;98531.00;;;13.53;62.14
71795;BME280;59641;45.188;5.712;2023-04-15T02:01:38;98526.41;;;13.54;62.17
71795;BME280;59641;45.188;5.712;2023-04-15T02:04:05;98526.41;;;13.54;62.43
71795;BME280;59641;45.188;5.712;2023-04-15T02:06:31;98526.41;;;13.54;62.17
71795;BME280;59641;45.188;5.712;2023-04-15T02:08:56;98524.81;;;13.53;62.35
71795;BME280;59641;45.188;5.712;2023-04-15T02:11:23;98531.00;;;13.53;61.99
71795;BME280;59641;45.188;5.712;2023-04-15T02:13:48;98532.06;;;13.52;62.47
71795;BME280;59641;45.188;5.712;2023-04-15T02:16:16;98537.19;;;13.54;62.49
71795;BME280;59641;45.188;5.712;2023-04-15T02:18:43;98524.56;;;13.54;62.34
71795;BME280;59641;45.188;5.712;2023-04-15T02:21:09;98518.31;;;13.54;61.70
71795;BME280;59641;45.188;5.712;2023-04-15T02:23:34;98515.34;;;13.50;62.23
71795;BME280;59641;45.188;5.712;2023-04-15T02:26:00;98521.53;;;13.51;62.22
71795;BME280;59641;45.188;5.712;2023-04-15T02:28:25;98518.84;;;13.51;62.44
71795;BME280;59641;45.188;5.712;2023-04-15T02:30:51;98521.53;;;13.51;62.76
71795;BME280;59641;45.188;5.712;2023-04-15T02:33:18;98523.19;;;13.52;62.76
71795;BME280;59641;45.188;5.712;2023-04-15T02:35:44;98521.28;;;13.52;62.60
71795;BME280;59641;45.188;5.712;2023-04-15T02:38:10;98520.50;;;13.52;62.75
71795;BME280;59641;45.188;5.712;2023-04-15T02:40:36;98520.50;;;13.52;62.68
71795;BME280;59641;45.188;5.712;2023-04-15T02:43:01;98518.59;;;13.52;62.41
71795;BME280;59641;45.188;5.712;2023-04-15T02:45:27;98523.19;;;13.52;62.77
71795;BME280;59641;45.188;5.712;2023-04-15T02:47:53;98525.03;;;13.51;62.68
71795;BME280;59641;45.188;5.712;2023-04-15T02:50:18;98520.75;;;13.50;62.52
71795;BME280;59641;45.188;5.712;2023-04-15T02:52:44;98523.44;;;13.50;62.51
71795;BME280;59641;45.188;5.712;2023-04-15T02:55:10;98522.63;;;13.50;62.42
71795;BME280;59641;45.188;5.712;2023-04-15T02:57:35;98513.72;;;13.49;62.48
71795;BME280;59641;45.188;5.712;2023-04-15T03:00:03;98521.78;;;13.49;62.25
71795;BME280;59641;45.188;5.712;2023-04-15T03:02:33;98522.63;;;13.50;62.22
71795;BME280;59641;45.188;5.712;2023-04-15T03:04:59;98516.69;;;13.48;62.18
71795;BME280;59641;45.188;5.712;2023-04-15T03:07:25;98523.13;;;13.47;62.55
71795;BME280;59641;45.188;5.712;2023-04-15T03:09:50;98518.00;;;13.45;62.30
71795;BME280;59641;45.188;5.712;2023-04-15T03:12:16;98523.13;;;13.47;62.48
71795;BME280;59641;45.188;5.712;2023-04-15T03:14:41;98525.00;;;13.46;62.67
71795;BME280;59641;45.188;5.712;2023-04-15T03:17:07;98526.91;;;13.46;62.56
71795;BME280;59641;45.188;5.712;2023-04-15T03:19:32;98531.50;;;13.45;62.44
71795;BME280;59641;45.188;5.712;2023-04-15T03:21:58;98520.97;;;13.43;62.28
71795;BME280;59641;45.188;5.712;2023-04-15T03:24:23;98522.84;;;13.43;62.59
71795;BME280;59641;45.188;5.712;2023-04-15T03:26:49;98513.13;;;13.42;62.62
71795;BME280;59641;45.188;5.712;2023-04-15T03:29:14;98518.50;;;13.42;62.71
71795;BME280;59641;45.188;5.712;2023-04-15T03:31:40;98514.22;;;13.41;62.38
71795;BME280;59641;45.188;5.712;2023-04-15T03:34:05;98520.69;;;13.40;62.43
71795;BME280;59641;45.188;5.712;2023-04-15T03:36:31;98518.78;;;13.40;62.57
71795;BME280;59641;45.188;5.712;2023-04-15T03:38:59;98515.28;;;13.40;62.54
71795;BME280;59641;45.188;5.712;2023-04-15T03:41:26;98517.97;;;13.40;62.62
71795;BME280;59641;45.188;5.712;2023-04-15T03:43:52;98526.59;;;13.42;62.77
71795;BME280;59641;45.188;5.712;2023-04-15T03:46:18;98518.50;;;13.42;62.76
71795;BME280;59641;45.188;5.712;2023-04-15T03:48:43;98517.47;;;13.43;62.98
71795;BME280;59641;45.188;5.712;2023-04-15T03:51:08;98512.06;;;13.43;62.68
71795;BME280;59641;45.188;5.712;2023-04-15T03:53:34;98518.50;;;13.42;62.98
71795;BME280;59641;45.188;5.712;2023-04-15T03:55:59;98515.81;;;13.42;62.76
71795;BME280;59641;45.188;5.712;2023-04-15T03:58:25;98525.00;;;13.41;62.84
71795;BME280;59641;45.188;5.712;2023-04-15T04:00:50;98529.56;;;13.40;62.88
71795;BME280;59641;45.188;5.712;2023-04-15T04:03:16;98526.88;;;13.40;62.84
71795;BME280;59641;45.188;5.712;2023-04-15T04:05:42;98526.06;;;13.40;62.87
71795;BME280;59641;45.188;5.712;2023-04-15T04:08:08;98525.22;;;13.39;62.81
71795;BME280;59641;45.188;5.712;2023-04-15T04:10:34;98528.75;;;13.40;62.67
71795;BME280;59641;45.188;5.712;2023-04-15T04:12:59;98531.47;;;13.40;62.86
71795;BME280;59641;45.188;5.712;2023-04-15T04:15:25;98531.47;;;13.40;62.91
71795;BME280;59641;45.188;5.712;2023-04-15T04:17:51;98534.69;;;13.42;63.08
71795;BME280;59641;45.188;5.712;2023-04-15T04:20:16;98537.38;;;13.42;62.82
71795;BME280;59641;45.188;5.712;2023-04-15T04:22:42;98536.56;;;13.41;63.06
71795;BME280;59641;45.188;5.712;2023-04-15T04:25:07;98534.69;;;13.42;62.71
71795;BME280;59641;45.188;5.712;2023-04-15T04:27:34;98538.47;;;13.41;62.92
71795;BME280;59641;45.188;5.712;2023-04-15T04:30:00;98532.25;;;13.40;62.77
71795;BME280;59641;45.188;5.712;2023-04-15T04:32:26;98539.53;;;13.40;62.99
71795;BME280;59641;45.188;5.712;2023-04-15T04:34:52;98533.06;;;13.41;62.90
71795;BME280;59641;45.188;5.712;2023-04-15T04:37:17;98527.69;;;13.41;63.12
71795;BME280;59641;45.188;5.712;2023-04-15T04:39:43;98527.13;;;13.39;63.15
71795;BME280;59641;45.188;5.712;2023-04-15T04:42:08;98536.84;;;13.40;63.16
71795;BME280;59641;45.188;5.712;2023-04-15T04:44:33;98539.53;;;13.40;63.27
71795;BME280;59641;45.188;5.712;2023-04-15T04:46:59;98534.16;;;13.40;63.24
71795;BME280;59641;45.188;5.712;2023-04-15T04:49:24;98538.47;;;13.41;63.36
71795;BME280;59641;45.188;5.712;2023-04-15T04:51:50;98539.25;;;13.41;63.47
71795;BME280;59641;45.188;5.712;2023-04-15T04:54:16;98545.47;;;13.42;63.25
71795;BME280;59641;45.188;5.712;2023-04-15T04:56:41;98543.59;;;13.42;63.32
71795;BME280;59641;45.188;5.712;2023-04-15T04:59:07;98539.25;;;13.41;63.05
71795;BME280;59641;45.188;5.712;2023-04-15T05:01:32;98545.75;;;13.40;63.26
71795;BME280;59641;45.188;5.712;2023-04-15T05:03:58;98544.09;;;13.39;63.11
71795;BME280;59641;45.188;5.712;2023-04-15T05:06:24;98540.34;;;13.40;63.38
71795;BME280;59641;45.188;5.712;2023-04-15T05:08:50;98536.00;;;13.39;63.35
71795;BME280;59641;45.188;5.712;2023-04-15T05:11:15;98544.09;;;13.39;63.31
71795;BME280;59641;45.188;5.712;2023-04-15T05:13:41;98542.72;;;13.37;63.47
71795;BME280;59641;45.188;5.712;2023-04-15T05:16:06;98550.56;;;13.38;63.39
71795;BME280;59641;45.188;5.712;2023-04-15T05:18:32;98555.97;;;13.38;63.48
71795;BME280;59641;45.188;5.712;2023-04-15T05:20:58;98552.19;;;13.39;63.60
71795;BME280;59641;45.188;5.712;2023-04-15T05:23:23;98557.56;;;13.39;63.44
71795;BME280;59641;45.188;5.712;2023-04-15T05:25:49;98559.47;;;13.39;63.32
71795;BME280;59641;45.188;5.712;2023-04-15T05:28:14;98552.47;;;13.38;63.17
71795;BME280;59641;45.188;5.712;2023-04-15T05:30:40;98551.91;;;13.36;63.41
71795;BME280;59641;45.188;5.712;2023-04-15T05:33:06;98551.66;;;13.37;63.21
71795;BME280;59641;45.188;5.712;2023-04-15T05:35:31;98556.47;;;13.35;63.50
71795;BME280;59641;45.188;5.712;2023-04-15T05:37:57;98557.28;;;13.36;63.50
71795;BME280;59641;45.188;5.712;2023-04-15T05:40:22;98551.66;;;13.37;63.51
71795;BME280;59641;45.188;5.712;2023-04-15T05:42:47;98551.66;;;13.37;63.65
71795;BME280;59641;45.188;5.712;2023-04-15T05:45:13;98560.53;;;13.38;63.64
71795;BME280;59641;45.188;5.712;2023-04-15T05:47:38;98565.13;;;13.37;63.87
71795;BME280;59641;45.188;5.712;2023-04-15T05:50:04;98568.63;;;13.38;63.70
71795;BME280;59641;45.188;5.712;2023-04-15T05:52:30;98564.03;;;13.38;63.42
71795;BME280;59641;45.188;5.712;2023-04-15T05:54:56;98557.84;;;13.38;63.49
71795;BME280;59641;45.188;5.712;2023-04-15T05:57:21;98553.78;;;13.35;63.90
71795;BME280;59641;45.188;5.712;2023-04-15T05:59:47;98552.69;;;13.36;63.74
71795;BME280;59641;45.188;5.712;2023-04-15T06:02:13;98557.03;;;13.37;63.69
71795;BME280;59641;45.188;5.712;2023-04-15T06:04:38;98565.94;;;13.38;63.75
71795;BME280;59641;45.188;5.712;2023-04-15T06:07:04;98563.22;;;13.38;63.79
71795;BME280;59641;45.188;5.712;2023-04-15T06:09:29;98557.03;;;13.37;63.85
71795;BME280;59641;45.188;5.712;2023-04-15T06:11:55;98544.38;;;13.38;63.78
71795;BME280;59641;45.188;5.712;2023-04-15T06:14:21;98558.66;;;13.38;63.63
71795;BME280;59641;45.188;5.712;2023-04-15T06:16:47;98554.06;;;13.39;63.92
71795;BME280;59641;45.188;5.712;2023-04-15T06:19:12;98545.19;;;13.38;64.00
71795;BME280;59641;45.188;5.712;2023-04-15T06:21:38;98552.19;;;13.39;63.22
71795;BME280;59641;45.188;5.712;2023-04-15T06:24:04;98555.41;;;13.36;63.78
71795;BME280;59641;45.188;5.712;2023-04-15T06:26:29;98550.00;;;13.36;63.68
71795;BME280;59641;45.188;5.712;2023-04-15T06:28:55;98553.78;;;13.35;63.81
71795;BME280;59641;45.188;5.712;2023-04-15T06:31:21;98557.28;;;13.36;64.01
71795;BME280;59641;45.188;5.712;2023-04-15T06:33:47;98557.03;;;13.37;64.01
71795;BME280;59641;45.188;5.712;2023-04-15T06:36:12;98557.03;;;13.37;63.50
71795;BME280;59641;45.188;5.712;2023-04-15T06:38:38;98551.91;;;13.36;63.57
71795;BME280;59641;45.188;5.712;2023-04-15T06:41:03;98557.28;;;13.36;63.73
71795;BME280;59641;45.188;5.712;2023-04-15T06:43:32;98562.69;;;13.36;63.57
71795;BME280;59641;45.188;5.712;2023-04-15T06:45:57;98567.81;;;13.37;63.62
71795;BME280;59641;45.188;5.712;2023-04-15T06:48:23;98571.31;;;13.38;63.38
71795;BME280;59641;45.188;5.712;2023-04-15T06:50:49;98575.06;;;13.37;63.68
71795;BME280;59641;45.188;5.712;2023-04-15T06:53:14;98577.75;;;13.37;63.89
71795;BME280;59641;45.188;5.712;2023-04-15T06:55:41;98580.44;;;13.37;63.93
71795;BME280;59641;45.188;5.712;2023-04-15T06:58:06;98587.50;;;13.38;63.80
71795;BME280;59641;45.188;5.712;2023-04-15T07:00:32;98587.50;;;13.38;63.62
71795;BME280;59641;45.188;5.712;2023-04-15T07:03:01;98582.91;;;13.38;63.80
71795;BME280;59641;45.188;5.712;2023-04-15T07:05:28;98583.72;;;13.39;64.06
71795;BME280;59641;45.188;5.712;2023-04-15T07:07:53;98592.59;;;13.39;63.86
71795;BME280;59641;45.188;5.712;2023-04-15T07:10:19;98600.69;;;13.39;63.50
71795;BME280;59641;45.188;5.712;2023-04-15T07:12:45;98600.16;;;13.37;63.21
71795;BME280;59641;45.188;5.712;2023-04-15T07:15:10;98596.91;;;13.35;63.41
71795;BME280;59641;45.188;5.712;2023-04-15T07:17:36;98591.19;;;13.32;63.19
71795;BME280;59641;45.188;5.712;2023-04-15T07:20:02;98586.88;;;13.31;63.56
71795;BME280;59641;45.188;5.712;2023-04-15T07:22:29;98592.28;;;13.31;63.63
71795;BME280;59641;45.188;5.712;2023-04-15T07:24:54;98590.38;;;13.31;63.80
71795;BME280;59641;45.188;5.712;2023-04-15T07:27:19;98568.03;;;13.31;63.78
71795;BME280;59641;45.188;5.712;2023-04-15T07:29:45;98551.88;;;13.31;63.73
71795;BME280;59641;45.188;5.712;2023-04-15T07:32:10;98543.50;;;13.32;63.79
71795;BME280;59641;45.188;5.712;2023-04-15T07:34:36;98545.16;;;13.33;64.03
71795;BME280;59641;45.188;5.712;2023-04-15T07:37:02;98547.06;;;13.38;63.59
71795;BME280;59641;45.188;5.712;2023-04-15T07:39:27;98545.44;;;13.37;64.07
71795;BME280;59641;45.188;5.712;2023-04-15T07:41:54;98547.88;;;13.38;63.53
71795;BME280;59641;45.188;5.712;2023-04-15T07:44:20;98565.66;;;13.39;63.75
71795;BME280;59641;45.188;5.712;2023-04-15T07:46:46;98589.66;;;13.41;64.01
71795;BME280;59641;45.188;5.712;2023-04-15T07:49:12;98636.84;;;13.43;63.79
71795;BME280;59641;45.188;5.712;2023-04-15T07:51:37;98603.13;;;13.41;64.07
71795;BME280;59641;45.188;5.712;2023-04-15T07:54:03;98605.53;;;13.37;63.92
71795;BME280;59641;45.188;5.712;2023-04-15T07:56:28;98601.97;;;13.32;63.55
71795;BME280;59641;45.188;5.712;2023-04-15T07:58:53;98621.00;;;13.25;62.92
71795;BME280;59641;45.188;5.712;2023-04-15T08:01:19;98621.78;;;13.20;62.62
71795;BME280;59641;45.188;5.712;2023-04-15T08:03:45;98627.09;;;13.15;62.16
71795;BME280;59641;45.188;5.712;2023-04-15T08:06:10;98638.41;;;13.12;62.35
71795;BME280;59641;45.188;5.712;2023-04-15T08:08:36;98643.50;;;13.09;62.46
71795;BME280;59641;45.188;5.712;2023-04-15T08:11:01;98642.66;;;13.08;62.65
71795;BME280;59641;45.188;5.712;2023-04-15T08:13:27;98640.47;;;13.05;62.54
71795;BME280;59641;45.188;5.712;2023-04-15T08:16:15;98637.78;;;13.05;62.65
71795;BME280;59641;45.188;5.712;2023-04-15T08:18:40;98645.06;;;13.05;62.49
71795;BME280;59641;45.188;5.712;2023-04-15T08:21:06;98636.97;;;13.05;62.55
71795;BME280;59641;45.188;5.712;2023-04-15T08:23:31;98636.94;;;12.99;62.59
71795;BME280;59641;45.188;5.712;2023-04-15T08:25:57;98636.94;;;12.99;62.25
71795;BME280;59641;45.188;5.712;2023-04-15T08:28:23;98636.13;;;12.99;62.11
71795;BME280;59641;45.188;5.712;2023-04-15T08:30:48;98641.75;;;12.97;62.07
71795;BME280;59641;45.188;5.712;2023-04-15T08:33:14;98637.44;;;12.96;61.99
71795;BME280;59641;45.188;5.712;2023-04-15T08:35:39;98640.13;;;12.96;61.99
71795;BME280;59641;45.188;5.712;2023-04-15T08:38:04;98644.13;;;12.94;62.04
71795;BME280;59641;45.188;5.712;2023-04-15T08:40:42;98645.53;;;12.96;61.43
71795;BME280;59641;45.188;5.712;2023-04-15T08:43:10;98645.72;;;12.90;61.10
71795;BME280;59641;45.188;5.712;2023-04-15T08:45:37;98654.28;;;12.87;61.09
71795;BME280;59641;45.188;5.712;2023-04-15T08:48:04;98655.69;;;12.89;60.82
71795;BME280;59641;45.188;5.712;2023-04-15T08:50:31;98664.84;;;12.93;60.55
71795;BME280;59641;45.188;5.712;2023-04-15T08:52:58;98657.53;;;12.89;59.99
71795;BME280;59641;45.188;5.712;2023-04-15T08:55:29;98662.44;;;12.92;60.21
71795;BME280;59641;45.188;5.712;2023-04-15T08:57:58;98662.16;;;12.93;59.84
71795;BME280;59641;45.188;5.712;2023-04-15T09:00:24;98665.66;;;12.94;58.81
71795;BME280;59641;45.188;5.712;2023-04-15T09:02:50;98653.53;;;12.91;58.62
71795;BME280;59641;45.188;5.712;2023-04-15T09:05:16;98670.19;;;12.88;58.72
71795;BME280;59641;45.188;5.712;2023-04-15T09:07:41;98669.13;;;12.89;58.64
71795;BME280;59641;45.188;5.712;2023-04-15T09:10:08;98673.44;;;12.90;58.82
71795;BME280;59641;45.188;5.712;2023-04-15T09:12:34;98666.75;;;12.93;59.12
71795;BME280;59641;45.188;5.712;2023-04-15T09:15:01;98671.06;;;12.94;58.22
71795;BME280;59641;45.188;5.712;2023-04-15T09:17:27;98663.53;;;12.96;58.17
71795;BME280;59641;45.188;5.712;2023-04-15T09:20:19;98679.22;;;12.99;56.92
71795;BME280;59641;45.188;5.712;2023-04-15T09:22:47;98685.66;;;12.98;57.41
71795;BME280;59641;45.188;5.712;2023-04-15T09:27:51;98685.13;;;13.01;56.50
71795;BME280;59641;45.188;5.712;2023-04-15T09:30:17;98686.53;;;13.04;56.34
71795;BME280;59641;45.188;5.712;2023-04-15T09:35:18;98697.09;;;13.10;56.87
71795;BME280;59641;45.188;5.712;2023-04-15T09:37:44;98694.44;;;13.15;55.99
71795;BME280;59641;45.188;5.712;2023-04-15T09:40:10;98680.22;;;13.20;55.94
71795;BME280;59641;45.188;5.712;2023-04-15T09:42:35;98702.34;;;13.22;55.73
71795;BME280;59641;45.188;5.712;2023-04-15T09:45:10;98698.88;;;13.27;55.82
71795;BME280;59641;45.188;5.712;2023-04-15T09:47:36;98700.84;;;13.31;55.59
71795;BME280;59641;45.188;5.712;2023-04-15T09:50:01;98738.06;;;13.34;55.16
71795;BME280;59641;45.188;5.712;2023-04-15T09:52:27;98761.00;;;13.37;55.51
71795;BME280;59641;45.188;5.712;2023-04-15T09:54:55;98765.00;;;13.34;55.32
71795;BME280;59641;45.188;5.712;2023-04-15T09:57:21;98802.94;;;13.28;55.57
71795;BME280;59641;45.188;5.712;2023-04-15T09:59:48;98835.66;;;13.19;56.29
71795;BME280;59641;45.188;5.712;2023-04-15T10:02:14;98820.19;;;13.10;57.10
71795;BME280;59641;45.188;5.712;2023-04-15T10:04:40;98804.66;;;12.95;56.88
71795;BME280;59641;45.188;5.712;2023-04-15T10:07:07;98797.47;;;12.84;57.46
71795;BME280;59641;45.188;5.712;2023-04-15T10:09:40;98798.22;;;12.79;57.58
71795;BME280;59641;45.188;5.712;2023-04-15T10:12:07;98795.97;;;12.71;57.82
71795;BME280;59641;45.188;5.712;2023-04-15T10:14:34;98803.47;;;12.69;57.80
71795;BME280;59641;45.188;5.712;2023-04-15T10:17:01;98801.84;;;12.68;57.86
71795;BME280;59641;45.188;5.712;2023-04-15T10:19:30;98792.41;;;12.65;57.88
71795;BME280;59641;45.188;5.712;2023-04-15T10:21:58;98795.31;;;12.64;58.15
71795;BME280;59641;45.188;5.712;2023-04-15T10:24:24;98786.19;;;12.65;58.39
71795;BME280;59641;45.188;5.712;2023-04-15T10:26:50;98785.72;;;12.68;58.29
71795;BME280;59641;45.188;5.712;2023-04-15T10:29:17;98795.41;;;12.69;58.28
71795;BME280;59641;45.188;5.712;2023-04-15T10:31:42;98791.16;;;12.73;58.87
71795;BME280;59641;45.188;5.712;2023-04-15T10:34:09;98793.09;;;12.77;59.39
71795;BME280;59641;45.188;5.712;2023-04-15T10:36:35;98779.94;;;12.81;59.08
71795;BME280;59641;45.188;5.712;2023-04-15T10:39:01;98787.22;;;12.81;58.84
71795;BME280;59641;45.188;5.712;2023-04-15T10:41:27;98784.03;;;12.84;58.75
71795;BME280;59641;45.188;5.712;2023-04-15T10:44:02;98779.44;;;12.84;58.43
71795;BME280;59641;45.188;5.712;2023-04-15T10:46:41;98773.25;;;12.84;57.92
71795;BME280;59641;45.188;5.712;2023-04-15T10:49:16;98770.00;;;12.82;57.78
71795;BME280;59641;45.188;5.712;2023-04-15T10:51:44;98779.44;;;12.84;58.17
71795;BME280;59641;45.188;5.712;2023-04-15T10:54:35;98774.16;;;12.89;58.05
71795;BME280;59641;45.188;5.712;2023-04-15T10:59:29;98782.03;;;12.96;58.71
71795;BME280;59641;45.188;5.712;2023-04-15T11:01:56;98787.97;;;12.98;57.68
71795;BME280;59641;45.188;5.712;2023-04-15T11:04:56;98778.91;;;13.04;57.59
71795;BME280;59641;45.188;5.712;2023-04-15T11:07:47;98781.91;;;13.08;57.85
71795;BME280;59641;45.188;5.712;2023-04-15T11:12:38;98777.72;;;13.17;57.95
71795;BME280;59641;45.188;5.712;2023-04-15T11:17:51;98767.66;;;13.29;58.04
71795;BME280;59641;45.188;5.712;2023-04-15T11:20:17;98765.84;;;13.35;58.06
71795;BME280;59641;45.188;5.712;2023-04-15T11:22:50;98772.91;;;13.41;57.33
71795;BME280;59641;45.188;5.712;2023-04-15T11:25:26;98774.28;;;13.43;57.16
71795;BME280;59641;45.188;5.712;2023-04-15T11:27:53;98772.41;;;13.44;57.30
71795;BME280;59641;45.188;5.712;2023-04-15T11:30:22;98765.16;;;13.45;57.26
71795;BME280;59641;45.188;5.712;2023-04-15T11:32:52;98760.00;;;13.43;57.06
71795;BME280;59641;45.188;5.712;2023-04-15T11:35:19;98760.56;;;13.45;57.08
71795;BME280;59641;45.188;5.712;2023-04-15T11:37:45;98760.25;;;13.41;57.21
71795;BME280;59641;45.188;5.712;2023-04-15T11:40:11;98758.63;;;13.40;56.92
71795;BME280;59641;45.188;5.712;2023-04-15T11:42:37;98775.22;;;13.32;56.68
71795;BME280;59641;45.188;5.712;2023-04-15T11:45:13;98809.72;;;13.30;57.06
71795;BME280;59641;45.188;5.712;2023-04-15T11:47:40;98848.25;;;13.31;57.44
71795;BME280;59641;45.188;5.712;2023-04-15T11:52:51;98848.69;;;13.06;57.45
71795;BME280;59641;45.188;5.712;2023-04-15T11:55:16;98849.56;;;12.89;57.33
71795;BME280;59641;45.188;5.712;2023-04-15T11:57:42;98873.22;;;12.70;57.52
71795;BME280;59641;45.188;5.712;2023-04-15T12:00:08;98880.00;;;12.56;57.89
71795;BME280;59641;45.188;5.712;2023-04-15T12:02:36;98876.06;;;12.47;58.07
71795;BME280;59641;45.188;5.712;2023-04-15T12:05:05;98879.34;;;12.32;57.95
71795;BME280;59641;45.188;5.712;2023-04-15T12:07:31;98884.78;;;12.20;58.23
71795;BME280;59641;45.188;5.712;2023-04-15T12:09:57;98880.59;;;12.12;58.57
71795;BME280;59641;45.188;5.712;2023-04-15T12:12:26;98883.44;;;12.06;58.61
71795;BME280;59641;45.188;5.712;2023-04-15T12:14:52;98878.09;;;11.94;58.75
71795;BME280;59641;45.188;5.712;2023-04-15T12:17:18;98894.16;;;11.89;58.84
71795;BME280;59641;45.188;5.712;2023-04-15T12:19:43;98892.63;;;11.81;59.23
71795;BME280;59641;45.188;5.712;2023-04-15T12:22:14;98887.16;;;11.76;59.28
71795;BME280;59641;45.188;5.712;2023-04-15T12:24:41;98903.28;;;11.76;59.66
71795;BME280;59641;45.188;5.712;2023-04-15T12:27:15;98901.53;;;11.70;59.47
71795;BME280;59641;45.188;5.712;2023-04-15T12:29:41;98907.41;;;11.67;59.49
71795;BME280;59641;45.188;5.712;2023-04-15T12:32:14;98917.56;;;11.65;59.89
71795;BME280;59641;45.188;5.712;2023-04-15T12:34:42;98915.81;;;11.59;60.18
71795;BME280;59641;45.188;5.712;2023-04-15T12:37:10;98924.59;;;11.54;59.77
71795;BME280;59641;45.188;5.712;2023-04-15T12:39:38;98916.53;;;11.54;60.25
71795;BME280;59641;45.188;5.712;2023-04-15T12:42:04;98919.31;;;11.59;60.11
71795;BME280;59641;45.188;5.712;2023-04-15T12:44:30;98914.06;;;11.64;60.36
71795;BME280;59641;45.188;5.712;2023-04-15T12:46:57;98913.34;;;11.69;60.77
71795;BME280;59641;45.188;5.712;2023-04-15T12:49:24;98916.72;;;11.76;60.57
71795;BME280;59641;45.188;5.712;2023-04-15T12:51:52;98915.75;;;11.82;60.98
71795;BME280;59641;45.188;5.712;2023-04-15T12:54:18;98911.31;;;11.88;61.01
71795;BME280;59641;45.188;5.712;2023-04-15T12:56:45;98915.97;;;11.92;60.72
71795;BME280;59641;45.188;5.712;2023-04-15T12:59:11;98911.53;;;11.98;60.93
71795;BME280;59641;45.188;5.712;2023-04-15T13:01:37;98916.53;;;12.06;61.36
71795;BME280;59641;45.188;5.712;2023-04-15T13:04:03;98910.19;;;12.12;61.17
71795;BME280;59641;45.188;5.712;2023-04-15T13:06:29;98906.53;;;12.19;61.00
71795;BME280;59641;45.188;5.712;2023-04-15T13:08:58;98913.06;;;12.23;60.89
71795;BME280;59641;45.188;5.712;2023-04-15T13:11:24;98911.41;;;12.22;60.66
71795;BME280;59641;45.188;5.712;2023-04-15T13:13:50;98909.56;;;12.22;60.30